Terminal Aerodrome Forecast
Issued by NWS

Home | Current Version | Previous Version | Text Only | Print | Product List | Glossary On
Versions: 1 2 3 4 5 6 7 8 9 10 11 12 13 14 15 16 17 18 19 20 21 22 23 24 25 26 27
497
FTUS42 KMHX 030913 AAB
TAFOAJ
TAF AMD
KOAJ 030913Z 0309/0406 18005KT P6SM VCSH OVC025
     FM031000 21008KT 6SM SHRA BKN015
      TEMPO 0310/0313 4SM TSRA OVC025CB
     FM031600 22009KT P6SM VCSH BKN045
     FM040400 21003KT 5SM BR VCSH BKN100
      AMD LTD TO CLD VIS AND WIND=

USA.gov is the U.S. government's official web portal to all federal, state and local government web resources and services.